sensor_id;sensor_type;location;lat;lon;timestamp;temperature;humidity
67196;DHT22;54122;53.538;49.366;2022-08-01T00:01:13;18.90;93.90
67196;DHT22;54122;53.538;49.366;2022-08-01T00:03:39;19.00;93.80
67196;DHT22;54122;53.538;49.366;2022-08-01T00:06:06;19.00;93.70
67196;DHT22;54122;53.538;49.366;2022-08-01T00:08:32;19.00;93.60
67196;DHT22;54122;53.538;49.366;2022-08-01T00:10:58;19.00;93.50
67196;DHT22;54122;53.538;49.366;2022-08-01T00:13:24;19.10;93.30
67196;DHT22;54122;53.538;49.366;2022-08-01T00:15:51;19.10;93.10
67196;DHT22;54122;53.538;49.366;2022-08-01T00:18:17;19.10;93.00
67196;DHT22;54122;53.538;49.366;2022-08-01T00:20:43;19.20;92.90
67196;DHT22;54122;53.538;49.366;2022-08-01T00:23:09;19.10;92.80
67196;DHT22;54122;53.538;49.366;2022-08-01T00:25:36;19.10;92.80
67196;DHT22;54122;53.538;49.366;2022-08-01T00:28:02;19.00;92.80
67196;DHT22;54122;53.538;49.366;2022-08-01T00:30:28;19.00;92.90
67196;DHT22;54122;53.538;49.366;2022-08-01T00:32:55;19.00;93.00
67196;DHT22;54122;53.538;49.366;2022-08-01T00:35:21;19.00;92.90
67196;DHT22;54122;53.538;49.366;2022-08-01T00:37:47;19.00;92.80
67196;DHT22;54122;53.538;49.366;2022-08-01T00:40:13;19.00;92.70
67196;DHT22;54122;53.538;49.366;2022-08-01T00:42:40;19.00;92.70
67196;DHT22;54122;53.538;49.366;2022-08-01T00:45:07;19.00;92.70
67196;DHT22;54122;53.538;49.366;2022-08-01T00:47:34;18.90;92.80
67196;DHT22;54122;53.538;49.366;2022-08-01T00:50:00;18.90;92.90
67196;DHT22;54122;53.538;49.366;2022-08-01T00:52:29;18.80;93.00
67196;DHT22;54122;53.538;49.366;2022-08-01T00:54:55;18.70;93.20
67196;DHT22;54122;53.538;49.366;2022-08-01T00:57:21;18.70;93.40
67196;DHT22;54122;53.538;49.366;2022-08-01T00:59:48;18.60;93.40
67196;DHT22;54122;53.538;49.366;2022-08-01T01:02:14;18.60;93.60
67196;DHT22;54122;53.538;49.366;2022-08-01T01:04:40;18.60;93.50
67196;DHT22;54122;53.538;49.366;2022-08-01T01:07:17;18.60;93.50
67196;DHT22;54122;53.538;49.366;2022-08-01T01:10:12;18.50;93.50
67196;DHT22;54122;53.538;49.366;2022-08-01T01:12:46;18.40;93.40
67196;DHT22;54122;53.538;49.366;2022-08-01T01:15:23;18.40;94.10
67196;DHT22;54122;53.538;49.366;2022-08-01T01:18:17;18.20;93.70
67196;DHT22;54122;53.538;49.366;2022-08-01T01:20:52;18.20;94.40
67196;DHT22;54122;53.538;49.366;2022-08-01T01:26:09;18.20;94.60
67196;DHT22;54122;53.538;49.366;2022-08-01T01:29:16;18.30;94.80
67196;DHT22;54122;53.538;49.366;2022-08-01T01:32:16;18.40;94.50
67196;DHT22;54122;53.538;49.366;2022-08-01T01:34:44;18.60;94.30
67196;DHT22;54122;53.538;49.366;2022-08-01T01:37:17;18.70;94.00
67196;DHT22;54122;53.538;49.366;2022-08-01T01:39:46;19.00;93.40
67196;DHT22;54122;53.538;49.366;2022-08-01T01:42:15;19.20;93.00
67196;DHT22;54122;53.538;49.366;2022-08-01T01:44:44;19.40;92.40
67196;DHT22;54122;53.538;49.366;2022-08-01T01:47:14;19.70;91.60
67196;DHT22;54122;53.538;49.366;2022-08-01T01:49:43;19.90;90.90
67196;DHT22;54122;53.538;49.366;2022-08-01T01:52:16;20.10;90.10
67196;DHT22;54122;53.538;49.366;2022-08-01T01:54:50;20.30;88.60
67196;DHT22;54122;53.538;49.366;2022-08-01T01:57:18;20.40;87.90
67196;DHT22;54122;53.538;49.366;2022-08-01T01:59:46;20.60;86.30
67196;DHT22;54122;53.538;49.366;2022-08-01T02:02:15;20.70;85.60
67196;DHT22;54122;53.538;49.366;2022-08-01T02:04:45;20.80;84.60
67196;DHT22;54122;53.538;49.366;2022-08-01T02:07:16;20.80;84.00
67196;DHT22;54122;53.538;49.366;2022-08-01T02:09:44;20.80;83.80
67196;DHT22;54122;53.538;49.366;2022-08-01T02:12:12;20.70;84.30
67196;DHT22;54122;53.538;49.366;2022-08-01T02:14:41;20.60;84.60
67196;DHT22;54122;53.538;49.366;2022-08-01T02:17:12;20.60;84.50
67196;DHT22;54122;53.538;49.366;2022-08-01T02:19:41;20.60;84.60
67196;DHT22;54122;53.538;49.366;2022-08-01T02:22:10;20.60;84.70
67196;DHT22;54122;53.538;49.366;2022-08-01T02:27:31;20.60;84.90
67196;DHT22;54122;53.538;49.366;2022-08-01T02:30:05;20.50;85.00
67196;DHT22;54122;53.538;49.366;2022-08-01T02:32:36;20.50;85.20
67196;DHT22;54122;53.538;49.366;2022-08-01T02:35:07;20.50;85.70
67196;DHT22;54122;53.538;49.366;2022-08-01T02:37:38;20.50;85.20
67196;DHT22;54122;53.538;49.366;2022-08-01T02:40:06;20.50;85.30
67196;DHT22;54122;53.538;49.366;2022-08-01T02:42:35;20.60;85.30
67196;DHT22;54122;53.538;49.366;2022-08-01T02:45:04;21.00;84.50
67196;DHT22;54122;53.538;49.366;2022-08-01T02:47:36;21.20;82.50
67196;DHT22;54122;53.538;49.366;2022-08-01T02:50:04;21.30;82.00
67196;DHT22;54122;53.538;49.366;2022-08-01T02:52:31;21.60;81.80
67196;DHT22;54122;53.538;49.366;2022-08-01T02:54:59;22.30;79.00
67196;DHT22;54122;53.538;49.366;2022-08-01T02:57:26;23.10;75.00
67196;DHT22;54122;53.538;49.366;2022-08-01T02:59:54;23.10;73.30
67196;DHT22;54122;53.538;49.366;2022-08-01T03:02:23;22.90;74.00
67196;DHT22;54122;53.538;49.366;2022-08-01T03:04:50;23.40;73.50
67196;DHT22;54122;53.538;49.366;2022-08-01T03:07:19;24.30;69.80
67196;DHT22;54122;53.538;49.366;2022-08-01T03:09:46;24.90;67.40
67196;DHT22;54122;53.538;49.366;2022-08-01T03:12:17;25.20;65.70
67196;DHT22;54122;53.538;49.366;2022-08-01T03:14:46;25.30;65.40
67196;DHT22;54122;53.538;49.366;2022-08-01T03:17:14;26.00;63.60
67196;DHT22;54122;53.538;49.366;2022-08-01T03:19:45;26.70;62.10
67196;DHT22;54122;53.538;49.366;2022-08-01T03:22:13;27.50;59.00
67196;DHT22;54122;53.538;49.366;2022-08-01T03:24:42;28.30;55.90
67196;DHT22;54122;53.538;49.366;2022-08-01T03:27:11;28.90;53.40
67196;DHT22;54122;53.538;49.366;2022-08-01T03:29:41;29.20;52.60
67196;DHT22;54122;53.538;49.366;2022-08-01T03:32:09;30.00;50.10
67196;DHT22;54122;53.538;49.366;2022-08-01T03:34:37;30.30;49.00
67196;DHT22;54122;53.538;49.366;2022-08-01T03:37:22;30.80;48.60
67196;DHT22;54122;53.538;49.366;2022-08-01T03:40:03;31.10;47.40
67196;DHT22;54122;53.538;49.366;2022-08-01T03:42:44;31.30;46.20
67196;DHT22;54122;53.538;49.366;2022-08-01T03:45:19;30.70;47.10
67196;DHT22;54122;53.538;49.366;2022-08-01T03:47:47;29.90;48.90
67196;DHT22;54122;53.538;49.366;2022-08-01T03:50:15;29.10;50.70
67196;DHT22;54122;53.538;49.366;2022-08-01T03:52:45;28.00;53.70
67196;DHT22;54122;53.538;49.366;2022-08-01T03:55:13;26.90;57.10
67196;DHT22;54122;53.538;49.366;2022-08-01T03:57:43;25.90;60.20
67196;DHT22;54122;53.538;49.366;2022-08-01T04:00:11;25.10;63.30
67196;DHT22;54122;53.538;49.366;2022-08-01T04:02:38;24.60;65.70
67196;DHT22;54122;53.538;49.366;2022-08-01T04:05:06;24.50;66.30
67196;DHT22;54122;53.538;49.366;2022-08-01T04:07:33;24.60;66.70
67196;DHT22;54122;53.538;49.366;2022-08-01T04:10:03;25.60;64.30
67196;DHT22;54122;53.538;49.366;2022-08-01T04:12:30;27.30;59.10
67196;DHT22;54122;53.538;49.366;2022-08-01T04:14:56;28.50;55.20
67196;DHT22;54122;53.538;49.366;2022-08-01T04:17:23;29.20;53.70
67196;DHT22;54122;53.538;49.366;2022-08-01T04:19:49;30.30;49.80
67196;DHT22;54122;53.538;49.366;2022-08-01T04:22:15;31.10;47.10
67196;DHT22;54122;53.538;49.366;2022-08-01T04:24:46;31.80;45.20
67196;DHT22;54122;53.538;49.366;2022-08-01T04:27:21;32.30;44.20
67196;DHT22;54122;53.538;49.366;2022-08-01T04:29:51;32.90;42.80
67196;DHT22;54122;53.538;49.366;2022-08-01T04:32:20;33.40;41.00
67196;DHT22;54122;53.538;49.366;2022-08-01T04:34:49;33.80;40.30
67196;DHT22;54122;53.538;49.366;2022-08-01T04:37:17;34.10;39.30
67196;DHT22;54122;53.538;49.366;2022-08-01T04:39:44;34.30;38.70
67196;DHT22;54122;53.538;49.366;2022-08-01T04:42:12;34.60;38.10
67196;DHT22;54122;53.538;49.366;2022-08-01T04:44:40;34.80;36.90
67196;DHT22;54122;53.538;49.366;2022-08-01T04:47:07;34.80;37.10
67196;DHT22;54122;53.538;49.366;2022-08-01T04:49:35;34.70;37.50
67196;DHT22;54122;53.538;49.366;2022-08-01T04:52:01;34.70;36.80
67196;DHT22;54122;53.538;49.366;2022-08-01T04:54:29;34.60;36.50
67196;DHT22;54122;53.538;49.366;2022-08-01T04:56:56;34.30;36.90
67196;DHT22;54122;53.538;49.366;2022-08-01T04:59:29;34.30;37.50
67196;DHT22;54122;53.538;49.366;2022-08-01T05:02:14;34.60;37.30
67196;DHT22;54122;53.538;49.366;2022-08-01T05:04:41;35.20;36.30
67196;DHT22;54122;53.538;49.366;2022-08-01T05:07:08;35.40;35.70
67196;DHT22;54122;53.538;49.366;2022-08-01T05:09:35;35.80;35.40
67196;DHT22;54122;53.538;49.366;2022-08-01T05:12:03;36.20;34.20
67196;DHT22;54122;53.538;49.366;2022-08-01T05:14:30;36.40;33.20
67196;DHT22;54122;53.538;49.366;2022-08-01T05:17:01;36.40;32.90
67196;DHT22;54122;53.538;49.366;2022-08-01T05:19:30;36.00;32.90
67196;DHT22;54122;53.538;49.366;2022-08-01T05:21:58;35.80;33.50
67196;DHT22;54122;53.538;49.366;2022-08-01T05:24:29;35.80;34.00
67196;DHT22;54122;53.538;49.366;2022-08-01T05:26:56;36.00;33.30
67196;DHT22;54122;53.538;49.366;2022-08-01T05:29:24;36.00;33.20
67196;DHT22;54122;53.538;49.366;2022-08-01T05:31:51;35.90;33.60
67196;DHT22;54122;53.538;49.366;2022-08-01T05:34:18;36.10;32.90
67196;DHT22;54122;53.538;49.366;2022-08-01T05:36:44;36.40;33.20
67196;DHT22;54122;53.538;49.366;2022-08-01T05:39:12;36.70;32.60
67196;DHT22;54122;53.538;49.366;2022-08-01T05:41:39;36.60;32.20
67196;DHT22;54122;53.538;49.366;2022-08-01T05:44:06;36.40;32.60
67196;DHT22;54122;53.538;49.366;2022-08-01T05:46:33;36.30;32.60
67196;DHT22;54122;53.538;49.366;2022-08-01T05:49:03;36.30;32.30
67196;DHT22;54122;53.538;49.366;2022-08-01T05:51:30;36.10;33.00
67196;DHT22;54122;53.538;49.366;2022-08-01T05:53:57;36.50;33.20
67196;DHT22;54122;53.538;49.366;2022-08-01T05:56:24;36.90;32.00
67196;DHT22;54122;53.538;49.366;2022-08-01T05:58:51;37.30;31.70
67196;DHT22;54122;53.538;49.366;2022-08-01T06:01:17;37.80;32.40
67196;DHT22;54122;53.538;49.366;2022-08-01T06:03:44;38.00;30.60
67196;DHT22;54122;53.538;49.366;2022-08-01T06:06:11;38.10;30.10
67196;DHT22;54122;53.538;49.366;2022-08-01T06:08:38;38.20;29.80
67196;DHT22;54122;53.538;49.366;2022-08-01T06:11:05;38.30;29.20
67196;DHT22;54122;53.538;49.366;2022-08-01T06:13:31;37.90;29.30
67196;DHT22;54122;53.538;49.366;2022-08-01T06:15:58;37.50;30.60
67196;DHT22;54122;53.538;49.366;2022-08-01T06:18:24;37.70;30.20
67196;DHT22;54122;53.538;49.366;2022-08-01T06:20:51;37.60;29.80
67196;DHT22;54122;53.538;49.366;2022-08-01T06:23:17;37.10;30.50
67196;DHT22;54122;53.538;49.366;2022-08-01T06:25:43;37.20;30.90
67196;DHT22;54122;53.538;49.366;2022-08-01T06:28:10;37.20;30.70
67196;DHT22;54122;53.538;49.366;2022-08-01T06:30:36;36.30;31.90
67196;DHT22;54122;53.538;49.366;2022-08-01T06:33:02;34.80;34.10
67196;DHT22;54122;53.538;49.366;2022-08-01T06:35:29;33.50;36.80
67196;DHT22;54122;53.538;49.366;2022-08-01T07:40:44;29.40;43.30
67196;DHT22;54122;53.538;49.366;2022-08-01T07:46:54;32.00;37.60
67196;DHT22;54122;53.538;49.366;2022-08-01T07:49:21;31.60;38.00
67196;DHT22;54122;53.538;49.366;2022-08-01T07:51:48;31.00;38.70
67196;DHT22;54122;53.538;49.366;2022-08-01T07:54:15;30.40;40.70
67196;DHT22;54122;53.538;49.366;2022-08-01T07:56:41;30.00;42.10
67196;DHT22;54122;53.538;49.366;2022-08-01T07:59:07;29.90;42.50
67196;DHT22;54122;53.538;49.366;2022-08-01T08:01:34;30.00;42.70
67196;DHT22;54122;53.538;49.366;2022-08-01T08:04:00;30.00;42.80
67196;DHT22;54122;53.538;49.366;2022-08-01T08:06:26;29.90;42.90
67196;DHT22;54122;53.538;49.366;2022-08-01T08:08:52;29.80;43.10
67196;DHT22;54122;53.538;49.366;2022-08-01T08:11:20;29.70;43.00
67196;DHT22;54122;53.538;49.366;2022-08-01T08:13:48;29.30;44.00
67196;DHT22;54122;53.538;49.366;2022-08-01T08:16:14;29.20;44.40
67196;DHT22;54122;53.538;49.366;2022-08-01T08:18:41;29.30;45.00
67196;DHT22;54122;53.538;49.366;2022-08-01T08:21:07;29.70;44.20
67196;DHT22;54122;53.538;49.366;2022-08-01T08:23:33;30.00;41.80
67196;DHT22;54122;53.538;49.366;2022-08-01T08:26:18;30.40;40.10
67196;DHT22;54122;53.538;49.366;2022-08-01T08:28:44;30.70;39.30
67196;DHT22;54122;53.538;49.366;2022-08-01T08:31:10;31.80;38.10
67196;DHT22;54122;53.538;49.366;2022-08-01T08:33:36;32.20;35.30
67196;DHT22;54122;53.538;49.366;2022-08-01T08:36:03;31.70;37.60
67196;DHT22;54122;53.538;49.366;2022-08-01T08:38:29;31.00;40.00
67196;DHT22;54122;53.538;49.366;2022-08-01T08:40:56;30.40;42.50
67196;DHT22;54122;53.538;49.366;2022-08-01T08:43:24;29.80;43.60
67196;DHT22;54122;53.538;49.366;2022-08-01T08:45:51;30.00;44.00
67196;DHT22;54122;53.538;49.366;2022-08-01T08:48:18;30.50;42.20
67196;DHT22;54122;53.538;49.366;2022-08-01T08:50:46;31.40;40.70
67196;DHT22;54122;53.538;49.366;2022-08-01T08:53:13;32.50;38.20
67196;DHT22;54122;53.538;49.366;2022-08-01T08:55:42;33.00;36.00
67196;DHT22;54122;53.538;49.366;2022-08-01T08:58:13;32.60;35.10
67196;DHT22;54122;53.538;49.366;2022-08-01T09:00:41;31.90;37.00
67196;DHT22;54122;53.538;49.366;2022-08-01T09:03:07;31.30;38.30
67196;DHT22;54122;53.538;49.366;2022-08-01T09:05:34;30.90;39.60
67196;DHT22;54122;53.538;49.366;2022-08-01T09:08:00;30.60;40.50
67196;DHT22;54122;53.538;49.366;2022-08-01T09:10:27;30.70;40.30
67196;DHT22;54122;53.538;49.366;2022-08-01T09:13:13;30.60;40.00
67196;DHT22;54122;53.538;49.366;2022-08-01T09:15:48;30.40;39.90
67196;DHT22;54122;53.538;49.366;2022-08-01T09:18:38;30.10;40.30
67196;DHT22;54122;53.538;49.366;2022-08-01T09:21:12;29.60;40.50
67196;DHT22;54122;53.538;49.366;2022-08-01T09:23:43;29.20;40.50
67196;DHT22;54122;53.538;49.366;2022-08-01T09:26:11;29.00;41.70
67196;DHT22;54122;53.538;49.366;2022-08-01T09:28:40;28.80;42.30
67196;DHT22;54122;53.538;49.366;2022-08-01T09:31:12;28.80;43.00
67196;DHT22;54122;53.538;49.366;2022-08-01T09:33:59;28.90;43.40
67196;DHT22;54122;53.538;49.366;2022-08-01T09:36:55;29.50;41.90
67196;DHT22;54122;53.538;49.366;2022-08-01T09:39:30;30.10;39.90
67196;DHT22;54122;53.538;49.366;2022-08-01T09:42:00;30.40;39.20
67196;DHT22;54122;53.538;49.366;2022-08-01T09:44:38;31.00;38.70
67196;DHT22;54122;53.538;49.366;2022-08-01T09:47:06;31.90;37.90
67196;DHT22;54122;53.538;49.366;2022-08-01T09:49:36;32.30;35.70
67196;DHT22;54122;53.538;49.366;2022-08-01T09:52:17;32.10;35.70
67196;DHT22;54122;53.538;49.366;2022-08-01T09:55:01;31.50;36.80
67196;DHT22;54122;53.538;49.366;2022-08-01T09:57:28;31.00;38.30
67196;DHT22;54122;53.538;49.366;2022-08-01T09:59:57;30.50;39.00
67196;DHT22;54122;53.538;49.366;2022-08-01T10:02:34;30.00;40.40
67196;DHT22;54122;53.538;49.366;2022-08-01T10:05:03;29.70;40.80
67196;DHT22;54122;53.538;49.366;2022-08-01T10:07:30;29.50;41.20
67196;DHT22;54122;53.538;49.366;2022-08-01T10:10:12;29.30;41.50
67196;DHT22;54122;53.538;49.366;2022-08-01T10:12:40;29.20;42.00
67196;DHT22;54122;53.538;49.366;2022-08-01T10:15:07;29.20;41.70
67196;DHT22;54122;53.538;49.366;2022-08-01T10:17:34;29.20;41.00
67196;DHT22;54122;53.538;49.366;2022-08-01T10:20:05;29.20;40.40
67196;DHT22;54122;53.538;49.366;2022-08-01T10:22:33;29.40;40.90
67196;DHT22;54122;53.538;49.366;2022-08-01T10:25:03;29.80;40.90
67196;DHT22;54122;53.538;49.366;2022-08-01T10:27:32;30.00;39.50
67196;DHT22;54122;53.538;49.366;2022-08-01T10:30:02;30.10;39.70
67196;DHT22;54122;53.538;49.366;2022-08-01T10:32:35;29.90;40.00
67196;DHT22;54122;53.538;49.366;2022-08-01T10:35:04;29.90;40.40
67196;DHT22;54122;53.538;49.366;2022-08-01T10:37:30;29.90;40.90
67196;DHT22;54122;53.538;49.366;2022-08-01T10:39:58;29.90;40.70
67196;DHT22;54122;53.538;49.366;2022-08-01T10:42:25;30.00;39.90
67196;DHT22;54122;53.538;49.366;2022-08-01T10:44:51;30.10;39.40
67196;DHT22;54122;53.538;49.366;2022-08-01T10:47:35;30.20;38.90
67196;DHT22;54122;53.538;49.366;2022-08-01T10:52:30;30.90;38.20
67196;DHT22;54122;53.538;49.366;2022-08-01T10:55:07;31.10;37.60
67196;DHT22;54122;53.538;49.366;2022-08-01T10:57:47;31.10;37.50
67196;DHT22;54122;53.538;49.366;2022-08-01T11:00:18;30.80;37.70
67196;DHT22;54122;53.538;49.366;2022-08-01T11:02:58;30.50;38.10
67196;DHT22;54122;53.538;49.366;2022-08-01T11:05:27;30.10;38.90
67196;DHT22;54122;53.538;49.366;2022-08-01T11:07:54;30.00;39.90
67196;DHT22;54122;53.538;49.366;2022-08-01T11:10:42;30.00;39.30
67196;DHT22;54122;53.538;49.366;2022-08-01T11:13:10;30.20;40.00
67196;DHT22;54122;53.538;49.366;2022-08-01T11:15:41;30.70;38.90
67196;DHT22;54122;53.538;49.366;2022-08-01T11:18:40;30.70;39.20
67196;DHT22;54122;53.538;49.366;2022-08-01T11:21:15;30.40;38.90
67196;DHT22;54122;53.538;49.366;2022-08-01T11:23:50;29.80;39.90
67196;DHT22;54122;53.538;49.366;2022-08-01T11:26:21;29.40;42.00
67196;DHT22;54122;53.538;49.366;2022-08-01T11:29:11;29.00;42.20
67196;DHT22;54122;53.538;49.366;2022-08-01T11:31:38;28.90;42.60
67196;DHT22;54122;53.538;49.366;2022-08-01T11:34:05;29.20;42.60
67196;DHT22;54122;53.538;49.366;2022-08-01T11:36:31;29.50;41.40
67196;DHT22;54122;53.538;49.366;2022-08-01T11:47:05;31.20;37.80
67196;DHT22;54122;53.538;49.366;2022-08-01T11:49:47;31.50;37.00
67196;DHT22;54122;53.538;49.366;2022-08-01T11:52:19;31.50;36.30
67196;DHT22;54122;53.538;49.366;2022-08-01T11:54:54;31.10;36.70
67196;DHT22;54122;53.538;49.366;2022-08-01T11:57:21;30.80;38.00
67196;DHT22;54122;53.538;49.366;2022-08-01T11:59:58;30.30;38.50
67196;DHT22;54122;53.538;49.366;2022-08-01T12:02:29;30.00;39.10
67196;DHT22;54122;53.538;49.366;2022-08-01T12:04:57;29.70;39.10
67196;DHT22;54122;53.538;49.366;2022-08-01T12:07:25;29.60;39.80
67196;DHT22;54122;53.538;49.366;2022-08-01T12:12:28;30.10;38.70
67196;DHT22;54122;53.538;49.366;2022-08-01T12:14:56;30.30;38.30
67196;DHT22;54122;53.538;49.366;2022-08-01T12:17:39;30.50;37.30
67196;DHT22;54122;53.538;49.366;2022-08-01T12:20:08;30.60;37.60
67196;DHT22;54122;53.538;49.366;2022-08-01T12:22:35;30.80;37.50
67196;DHT22;54122;53.538;49.366;2022-08-01T12:25:06;31.00;37.10
67196;DHT22;54122;53.538;49.366;2022-08-01T12:27:33;31.20;35.50
67196;DHT22;54122;53.538;49.366;2022-08-01T12:30:00;31.30;35.20
67196;DHT22;54122;53.538;49.366;2022-08-01T12:32:31;31.60;35.10
67196;DHT22;54122;53.538;49.366;2022-08-01T12:35:07;31.70;34.80
67196;DHT22;54122;53.538;49.366;2022-08-01T12:37:38;31.80;34.80
67196;DHT22;54122;53.538;49.366;2022-08-01T12:40:22;31.80;34.70
67196;DHT22;54122;53.538;49.366;2022-08-01T12:42:53;31.80;34.10
67196;DHT22;54122;53.538;49.366;2022-08-01T12:45:27;31.60;33.80
67196;DHT22;54122;53.538;49.366;2022-08-01T12:47:54;31.50;35.00
67196;DHT22;54122;53.538;49.366;2022-08-01T12:50:22;31.40;35.00
67196;DHT22;54122;53.538;49.366;2022-08-01T12:52:50;31.30;34.30
67196;DHT22;54122;53.538;49.366;2022-08-01T12:55:21;31.20;35.00
67196;DHT22;54122;53.538;49.366;2022-08-01T12:57:49;31.20;34.20
67196;DHT22;54122;53.538;49.366;2022-08-01T13:00:19;31.10;36.00
67196;DHT22;54122;53.538;49.366;2022-08-01T13:02:47;31.00;33.90
67196;DHT22;54122;53.538;49.366;2022-08-01T13:05:15;30.70;34.60
67196;DHT22;54122;53.538;49.366;2022-08-01T13:07:49;30.40;35.60
67196;DHT22;54122;53.538;49.366;2022-08-01T13:10:28;30.30;35.90
67196;DHT22;54122;53.538;49.366;2022-08-01T13:12:57;30.10;35.60
67196;DHT22;54122;53.538;49.366;2022-08-01T13:15:32;30.00;36.00
67196;DHT22;54122;53.538;49.366;2022-08-01T13:18:00;30.00;35.70
67196;DHT22;54122;53.538;49.366;2022-08-01T13:20:30;29.80;36.10
67196;DHT22;54122;53.538;49.366;2022-08-01T13:23:14;29.50;36.20
67196;DHT22;54122;53.538;49.366;2022-08-01T13:25:54;29.40;36.90
67196;DHT22;54122;53.538;49.366;2022-08-01T13:28:23;29.30;37.40
67196;DHT22;54122;53.538;49.366;2022-08-01T13:30:56;29.20;37.60
67196;DHT22;54122;53.538;49.366;2022-08-01T13:33:24;29.20;37.20
67196;DHT22;54122;53.538;49.366;2022-08-01T13:35:55;29.10;36.60
67196;DHT22;54122;53.538;49.366;2022-08-01T13:38:22;29.00;37.00
67196;DHT22;54122;53.538;49.366;2022-08-01T13:41:07;28.90;37.20
67196;DHT22;54122;53.538;49.366;2022-08-01T13:43:33;28.80;37.50
67196;DHT22;54122;53.538;49.366;2022-08-01T13:46:01;28.70;37.70
67196;DHT22;54122;53.538;49.366;2022-08-01T13:48:31;28.70;38.10
67196;DHT22;54122;53.538;49.366;2022-08-01T13:50:58;28.60;37.80
67196;DHT22;54122;53.538;49.366;2022-08-01T13:53:24;28.60;37.50
67196;DHT22;54122;53.538;49.366;2022-08-01T13:55:50;28.50;37.70
67196;DHT22;54122;53.538;49.366;2022-08-01T13:58:17;28.50;38.40
67196;DHT22;54122;53.538;49.366;2022-08-01T14:00:43;28.50;38.10
67196;DHT22;54122;53.538;49.366;2022-08-01T14:03:09;28.40;38.20
67196;DHT22;54122;53.538;49.366;2022-08-01T14:05:36;28.40;38.30
67196;DHT22;54122;53.538;49.366;2022-08-01T14:08:03;28.40;38.40
67196;DHT22;54122;53.538;49.366;2022-08-01T14:10:29;28.30;38.50
67196;DHT22;54122;53.538;49.366;2022-08-01T14:12:56;28.30;38.80
67196;DHT22;54122;53.538;49.366;2022-08-01T14:15:24;28.20;38.60
67196;DHT22;54122;53.538;49.366;2022-08-01T14:17:50;28.10;39.10
67196;DHT22;54122;53.538;49.366;2022-08-01T14:20:17;28.10;39.10
67196;DHT22;54122;53.538;49.366;2022-08-01T14:22:46;28.10;38.40
67196;DHT22;54122;53.538;49.366;2022-08-01T14:25:12;28.00;38.80
67196;DHT22;54122;53.538;49.366;2022-08-01T14:27:38;27.90;39.10
67196;DHT22;54122;53.538;49.366;2022-08-01T14:30:10;27.90;38.60
67196;DHT22;54122;53.538;49.366;2022-08-01T14:32:37;27.80;39.10
67196;DHT22;54122;53.538;49.366;2022-08-01T14:35:05;27.70;39.80
67196;DHT22;54122;53.538;49.366;2022-08-01T14:37:32;27.60;39.50
67196;DHT22;54122;53.538;49.366;2022-08-01T14:39:58;27.50;40.20
67196;DHT22;54122;53.538;49.366;2022-08-01T14:42:26;27.40;40.40
67196;DHT22;54122;53.538;49.366;2022-08-01T14:44:52;27.40;40.50
67196;DHT22;54122;53.538;49.366;2022-08-01T14:47:18;27.40;40.10
67196;DHT22;54122;53.538;49.366;2022-08-01T14:49:45;27.30;40.10
67196;DHT22;54122;53.538;49.366;2022-08-01T14:52:12;27.20;39.90
67196;DHT22;54122;53.538;49.366;2022-08-01T14:54:38;27.10;40.40
67196;DHT22;54122;53.538;49.366;2022-08-01T14:57:04;27.00;40.20
67196;DHT22;54122;53.538;49.366;2022-08-01T14:59:30;26.90;40.40
67196;DHT22;54122;53.538;49.366;2022-08-01T15:01:56;26.90;40.80
67196;DHT22;54122;53.538;49.366;2022-08-01T15:04:23;26.80;40.60
67196;DHT22;54122;53.538;49.366;2022-08-01T15:06:49;26.70;40.80
67196;DHT22;54122;53.538;49.366;2022-08-01T15:09:15;26.60;41.30
67196;DHT22;54122;53.538;49.366;2022-08-01T15:11:42;26.50;41.40
67196;DHT22;54122;53.538;49.366;2022-08-01T15:14:08;26.40;41.60
67196;DHT22;54122;53.538;49.366;2022-08-01T15:16:52;26.40;41.80
67196;DHT22;54122;53.538;49.366;2022-08-01T15:19:19;26.30;41.80
67196;DHT22;54122;53.538;49.366;2022-08-01T15:21:45;26.20;41.80
67196;DHT22;54122;53.538;49.366;2022-08-01T15:24:11;26.10;41.80
67196;DHT22;54122;53.538;49.366;2022-08-01T15:26:38;26.00;41.70
67196;DHT22;54122;53.538;49.366;2022-08-01T15:29:04;26.00;42.10
67196;DHT22;54122;53.538;49.366;2022-08-01T15:31:30;25.90;42.40
67196;DHT22;54122;53.538;49.366;2022-08-01T15:33:57;25.80;43.00
67196;DHT22;54122;53.538;49.366;2022-08-01T15:36:23;25.70;43.00
67196;DHT22;54122;53.538;49.366;2022-08-01T15:38:49;25.70;43.20
67196;DHT22;54122;53.538;49.366;2022-08-01T15:41:16;25.60;43.40
67196;DHT22;54122;53.538;49.366;2022-08-01T15:43:42;25.50;43.80
67196;DHT22;54122;53.538;49.366;2022-08-01T15:46:08;25.40;44.40
67196;DHT22;54122;53.538;49.366;2022-08-01T15:48:37;25.30;44.70
67196;DHT22;54122;53.538;49.366;2022-08-01T15:51:03;25.20;45.10
67196;DHT22;54122;53.538;49.366;2022-08-01T15:53:29;25.20;45.50
67196;DHT22;54122;53.538;49.366;2022-08-01T15:55:55;25.10;45.80
67196;DHT22;54122;53.538;49.366;2022-08-01T15:58:22;25.00;45.80
67196;DHT22;54122;53.538;49.366;2022-08-01T16:00:48;24.90;46.40
67196;DHT22;54122;53.538;49.366;2022-08-01T16:03:14;24.90;46.60
67196;DHT22;54122;53.538;49.366;2022-08-01T16:05:40;24.80;46.90
67196;DHT22;54122;53.538;49.366;2022-08-01T16:08:12;24.70;47.00
67196;DHT22;54122;53.538;49.366;2022-08-01T16:10:38;24.60;47.30
67196;DHT22;54122;53.538;49.366;2022-08-01T16:13:04;24.60;47.70
67196;DHT22;54122;53.538;49.366;2022-08-01T16:15:31;24.50;47.60
67196;DHT22;54122;53.538;49.366;2022-08-01T16:17:57;24.40;47.80
67196;DHT22;54122;53.538;49.366;2022-08-01T16:20:23;24.30;47.90
67196;DHT22;54122;53.538;49.366;2022-08-01T16:22:49;24.20;49.00
67196;DHT22;54122;53.538;49.366;2022-08-01T16:25:15;24.20;47.80
67196;DHT22;54122;53.538;49.366;2022-08-01T16:27:42;24.10;47.80
67196;DHT22;54122;53.538;49.366;2022-08-01T16:30:09;24.00;47.80
67196;DHT22;54122;53.538;49.366;2022-08-01T16:32:35;23.90;47.90
67196;DHT22;54122;53.538;49.366;2022-08-01T16:35:01;23.90;48.30
67196;DHT22;54122;53.538;49.366;2022-08-01T16:37:27;23.80;48.70
67196;DHT22;54122;53.538;49.366;2022-08-01T16:39:54;23.70;48.60
67196;DHT22;54122;53.538;49.366;2022-08-01T16:42:20;23.60;48.80
67196;DHT22;54122;53.538;49.366;2022-08-01T16:44:46;23.50;49.00
67196;DHT22;54122;53.538;49.366;2022-08-01T16:47:12;23.50;49.20
67196;DHT22;54122;53.538;49.366;2022-08-01T16:49:38;23.40;49.60
67196;DHT22;54122;53.538;49.366;2022-08-01T16:52:05;23.30;49.50
67196;DHT22;54122;53.538;49.366;2022-08-01T16:54:31;23.20;49.60